Time;durP1;ratioP1;P1;durP2;ratioP2;P2;SDS_P1;SDS_P2;PMS_P1;PMS_P2;Temp;Humidity;BMP_temperature;BMP_pressure;BME280_temperature;BME280_humidity;BME280_pressure;Samples;Min_cycle;Max_cycle;Signal;HPM_P1;HPM_P2
2021/12/15 00:01:58;;;;;;;92.30;63.97;;;;;;;7.78;99.94;102583.13;4952029;29;20546;-82
2021/12/15 00:04:23;;;;;;;89.70;66.20;;;;;;;7.75;100.00;102590.75;4954104;28;20051;-80
2021/12/15 00:06:48;;;;;;;80.03;61.80;;;;;;;7.72;100.00;102586.44;4965169;28;20067;-79
2021/12/15 00:09:14;;;;;;;82.93;63.93;;;;;;;7.78;99.85;102586.53;4992827;23;20043;-85
2021/12/15 00:11:40;;;;;;;84.65;63.88;;;;;;;7.73;100.00;102577.03;4989007;28;20026;-85
2021/12/15 00:14:16;;;;;;;85.65;64.13;;;;;;;7.77;100.00;102582.22;4974918;28;20038;-84
2021/12/15 00:16:42;;;;;;;85.53;64.30;;;;;;;7.72;100.00;102586.44;4992198;28;20028;-84
2021/12/15 00:19:07;;;;;;;86.28;63.72;;;;;;;7.65;99.95;102570.97;4998703;28;20030;-86
2021/12/15 00:21:33;;;;;;;84.57;64.28;;;;;;;7.73;100.00;102590.75;5001161;28;20045;-86
2021/12/15 00:23:59;;;;;;;85.15;65.05;;;;;;;7.66;100.00;102571.00;4983268;28;20053;-85
2021/12/15 00:26:25;;;;;;;80.70;63.60;;;;;;;7.69;100.00;102576.16;4985532;28;20129;-86
2021/12/15 00:28:51;;;;;;;79.85;62.10;;;;;;;7.79;100.00;102587.38;4939138;29;20027;-87
2021/12/15 00:31:17;;;;;;;77.95;61.85;;;;;;;7.82;100.00;102583.13;4973558;28;20046;-85
2021/12/15 00:33:43;;;;;;;84.53;62.88;;;;;;;7.74;99.71;102582.19;4957407;28;20470;-87
2021/12/15 00:36:10;;;;;;;76.93;62.63;;;;;;;7.98;99.51;102597.00;4982400;28;20033;-87
2021/12/15 00:38:35;;;;;;;81.63;62.75;;;;;;;7.90;100.00;102596.06;4982399;28;20054;-86
2021/12/15 00:41:01;;;;;;;75.97;60.53;;;;;;;7.87;100.00;102588.31;4978721;28;20034;-85
2021/12/15 00:43:26;;;;;;;79.30;62.77;;;;;;;7.79;100.00;102587.38;4982212;28;20054;-86
2021/12/15 00:45:52;;;;;;;80.30;61.87;;;;;;;7.86;100.00;102596.00;4999081;28;20111;-85
2021/12/15 00:48:17;;;;;;;77.57;60.90;;;;;;;7.96;100.00;102605.53;5015028;28;20007;-83
2021/12/15 00:50:44;;;;;;;80.77;61.13;;;;;;;7.97;100.00;102604.69;5009948;28;20018;-80
2021/12/15 00:53:09;;;;;;;;;;;;;;;7.85;100.00;102607.09;4999332;28;20018;-80
2021/12/15 00:55:36;;;;;;;78.38;62.22;;;;;;;7.84;100.00;102605.38;4998947;28;19961;-82
2021/12/15 00:58:02;;;;;;;77.40;62.30;;;;;;;7.94;100.00;102612.34;4998715;28;20019;-83
2021/12/15 01:00:32;;;;;;;78.03;61.72;;;;;;;7.93;100.00;102615.75;5015263;28;20023;-81
2021/12/15 01:02:57;;;;;;;77.32;62.78;;;;;;;7.92;100.00;102614.00;4982590;28;20074;-80
2021/12/15 01:05:26;;;;;;;75.00;60.90;;;;;;;8.02;100.00;102605.59;4998283;28;20018;-82
2021/12/15 01:07:52;;;;;;;75.35;60.92;;;;;;;8.07;100.00;102619.34;4981683;28;20018;-80
2021/12/15 01:10:24;;;;;;;81.30;61.95;;;;;;;7.75;100.00;102591.59;4966170;28;20046;-83
2021/12/15 01:14:30;;;;;;;77.63;61.15;;;;;;;7.89;100.00;102604.59;4990819;28;20482;-85
2021/12/15 01:21:18;;;;;;;81.35;61.90;;;;;;;7.80;100.00;102601.91;4976644;28;20035;-85
2021/12/15 01:23:44;;;;;;;78.87;62.00;;;;;;;7.82;100.00;102603.63;4960623;29;20022;-86
2021/12/15 01:26:13;;;;;;;84.90;63.22;;;;;;;7.85;100.00;102604.53;4961140;29;20054;-87
2021/12/15 01:28:38;;;;;;;83.97;62.35;;;;;;;7.85;100.00;102613.06;4962681;28;20039;-86
2021/12/15 01:31:05;;;;;;;79.47;63.33;;;;;;;7.79;100.00;102583.13;4947952;28;20109;-85
2021/12/15 01:33:30;;;;;;;75.75;62.35;;;;;;;7.84;100.00;102601.09;4972437;28;20031;-83
2021/12/15 01:35:57;;;;;;;85.27;64.17;;;;;;;7.82;100.00;102593.38;4970552;28;20047;-83
2021/12/15 01:38:25;;;;;;;78.13;62.92;;;;;;;7.81;100.00;102591.69;4967071;28;20018;-83
2021/12/15 01:40:51;;;;;;;76.07;61.47;;;;;;;7.85;100.00;102601.97;4962157;28;20086;-84
2021/12/15 01:43:26;;;;;;;82.18;63.55;;;;;;;7.92;100.00;102608.88;4988410;28;20031;-87
2021/12/15 01:49:08;;;;;;;75.07;61.03;;;;;;;8.00;100.00;102609.84;4970119;28;20584;-85
2021/12/15 01:51:34;;;;;;;76.38;61.40;;;;;;;8.04;100.00;102597.94;4965663;28;20026;-85
2021/12/15 01:53:59;;;;;;;71.10;61.50;;;;;;;7.95;100.00;102588.41;4966136;28;20027;-85
2021/12/15 01:56:25;;;;;;;73.07;59.73;;;;;;;8.07;100.00;102597.97;4935488;29;20027;-86
2021/12/15 01:58:51;;;;;;;76.15;61.60;;;;;;;8.06;100.00;102593.69;4976827;28;20644;-85
2021/12/15 02:01:16;;;;;;;78.17;62.20;;;;;;;7.99;100.00;102591.03;4973348;28;20039;-86
2021/12/15 02:03:41;;;;;;;80.47;62.60;;;;;;;8.07;100.00;102592.84;4950848;28;20591;-86
2021/12/15 02:06:09;;;;;;;77.53;63.33;;;;;;;8.04;100.00;102596.22;4980146;28;20031;-85
2021/12/15 02:08:35;;;;;;;80.03;63.78;;;;;;;8.01;99.96;102598.75;4976222;28;20047;-85
2021/12/15 02:11:00;;;;;;;77.70;61.38;;;;;;;8.07;100.00;102598.81;4954007;29;20035;-86
2021/12/15 02:13:26;;;;;;;83.83;62.73;;;;;;;8.03;100.00;102599.63;4946414;29;20031;-85
2021/12/15 02:15:56;;;;;;;83.90;63.10;;;;;;;8.04;100.00;102611.59;4978511;28;20015;-83
2021/12/15 02:18:26;;;;;;;81.43;64.07;;;;;;;8.00;100.00;102607.28;4967074;28;20422;-86
2021/12/15 02:20:55;;;;;;;79.03;62.83;;;;;;;7.99;100.00;102603.00;4981001;28;20126;-86
2021/12/15 02:23:25;;;;;;;81.57;64.50;;;;;;;8.08;100.00;102612.50;4980308;28;20513;-86
2021/12/15 02:25:51;;;;;;;88.38;64.43;;;;;;;8.02;100.00;102604.72;4977909;28;20486;-85
2021/12/15 02:28:17;;;;;;;84.90;64.90;;;;;;;8.06;100.00;102602.22;4978654;28;20087;-86
2021/12/15 02:30:52;;;;;;;84.87;63.03;;;;;;;8.07;100.00;102601.38;4978990;28;20027;-85
2021/12/15 02:38:51;;;;;;;91.20;66.07;;;;;;;7.98;100.00;102594.44;4976287;28;20030;-84
2021/12/15 02:41:20;;;;;;;96.33;67.00;;;;;;;7.97;100.00;102591.88;5007636;28;20031;-85
2021/12/15 02:43:52;;;;;;;89.93;65.93;;;;;;;8.00;100.00;102591.91;4971594;28;20054;-82
2021/12/15 02:46:18;;;;;;;91.80;64.95;;;;;;;8.00;100.00;102597.03;4991384;28;20066;-82
2021/12/15 02:48:44;;;;;;;100.57;69.57;;;;;;;7.96;100.00;102590.16;5015055;28;20035;-82
2021/12/15 02:51:09;;;;;;;89.20;63.97;;;;;;;8.06;100.00;102597.09;4983462;28;20099;-84
2021/12/15 02:53:35;;;;;;;98.87;67.13;;;;;;;8.06;100.00;102607.34;4982253;28;20277;-85
2021/12/15 02:56:00;;;;;;;88.33;64.33;;;;;;;8.08;100.00;102605.69;4996307;28;20268;-85
2021/12/15 02:58:32;;;;;;;88.87;65.47;;;;;;;8.06;100.00;102612.47;4932976;29;20035;-84
2021/12/15 03:01:03;;;;;;;97.40;67.22;;;;;;;8.10;100.00;102614.25;4944376;29;20548;-84
2021/12/15 03:04:35;;;;;;;95.75;64.28;;;;;;;8.21;100.00;102606.69;4985902;28;20118;-86
2021/12/15 03:06:33;;;;;;;91.93;67.20;;;;;;;8.01;100.00;102598.75;4975792;28;20101;-85
2021/12/15 03:09:28;;;;;;;87.07;63.50;;;;;;;8.21;100.00;102603.25;4950994;28;20065;-85
2021/12/15 03:17:14;;;;;;;89.55;64.45;;;;;;;8.17;100.00;102585.25;4974189;28;20528;-86
2021/12/15 03:19:40;;;;;;;87.83;64.60;;;;;;;8.30;100.00;102595.66;4997737;28;20047;-85
2021/12/15 03:22:05;;;;;;;88.57;64.70;;;;;;;8.18;100.00;102589.56;4980856;28;20049;-86
2021/12/15 03:24:30;;;;;;;91.80;65.03;;;;;;;8.21;100.00;102592.97;5002827;28;20039;-85
2021/12/15 03:27:03;;;;;;;87.30;65.53;;;;;;;8.19;100.00;102592.97;4998434;28;20042;-86
2021/12/15 03:35:06;;;;;;;94.78;66.38;;;;;;;8.22;100.00;102593.00;4965615;28;20177;-85
2021/12/15 03:37:37;;;;;;;92.70;64.93;;;;;;;8.13;100.00;102593.78;4927399;28;20510;-85
2021/12/15 03:40:08;;;;;;;97.47;70.30;;;;;;;8.12;100.00;102602.28;4929956;28;20019;-85
2021/12/15 03:42:41;;;;;;;96.70;67.22;;;;;;;8.13;100.00;102592.94;4977881;28;20196;-83
2021/12/15 03:45:11;;;;;;;93.63;66.80;;;;;;;8.17;100.00;102589.53;4945705;28;20065;-84
2021/12/15 03:47:40;;;;;;;97.10;65.38;;;;;;;8.13;100.00;102591.22;4941069;29;20023;-85
2021/12/15 03:50:07;;;;;;;97.70;69.13;;;;;;;8.17;100.00;102603.19;4962968;28;20018;-85
2021/12/15 03:52:32;;;;;;;99.28;66.13;;;;;;;8.08;100.00;102582.63;4948331;28;20487;-84
2021/12/15 03:54:59;;;;;;;102.20;67.10;;;;;;;8.20;100.00;102598.97;4948047;28;20026;-85
2021/12/15 03:57:25;;;;;;;98.75;66.32;;;;;;;8.21;100.00;102598.09;4980794;28;20073;-86
2021/12/15 03:59:50;;;;;;;97.70;65.73;;;;;;;8.20;100.00;102598.97;4980648;28;20023;-86
2021/12/15 04:02:18;;;;;;;99.30;65.83;;;;;;;8.21;100.00;102585.28;4996783;28;20038;-86
2021/12/15 04:04:44;;;;;;;97.40;67.50;;;;;;;8.13;100.00;102596.34;4974222;28;20280;-86
2021/12/15 04:07:10;;;;;;;106.30;67.65;;;;;;;8.11;100.00;102585.22;4975968;28;20030;-83
2021/12/15 04:09:36;;;;;;;107.45;69.68;;;;;;;8.20;100.00;102596.41;4995779;28;20035;-85
2021/12/15 04:12:01;;;;;;;106.07;68.83;;;;;;;8.25;100.00;102594.75;4995782;28;20034;-82
2021/12/15 04:14:34;;;;;;;100.93;66.03;;;;;;;8.23;100.00;102601.56;4974646;28;20252;-84
2021/12/15 04:17:05;;;;;;;99.35;66.65;;;;;;;8.16;100.00;102586.13;5000341;28;20019;-83
2021/12/15 04:19:33;;;;;;;104.85;66.57;;;;;;;8.23;100.00;102609.25;4982463;28;20142;-86
2021/12/15 04:21:59;;;;;;;96.60;64.78;;;;;;;8.30;100.00;102600.78;4967412;28;20437;-85
2021/12/15 04:24:27;;;;;;;103.00;67.50;;;;;;;8.20;100.00;102602.38;5005020;28;20022;-84
2021/12/15 04:26:54;;;;;;;101.95;67.25;;;;;;;8.20;100.00;102604.09;4988263;28;20042;-85
2021/12/15 04:29:20;;;;;;;104.28;65.90;;;;;;;8.15;100.00;102592.09;4969842;28;20059;-84
2021/12/15 04:32:02;;;;;;;100.95;66.68;;;;;;;8.25;100.00;102602.44;4991213;28;20053;-83
2021/12/15 04:34:28;;;;;;;103.80;66.63;;;;;;;8.23;100.00;102593.88;4966768;28;20019;-83
2021/12/15 04:36:53;;;;;;;97.70;67.15;;;;;;;8.26;100.00;102604.19;4998748;28;20018;-83
2021/12/15 04:39:27;;;;;;;104.77;64.77;;;;;;;8.29;100.00;102604.22;4966528;28;20102;-83
2021/12/15 04:41:54;;;;;;;98.80;65.95;;;;;;;8.23;100.00;102599.00;4966823;28;20010;-83
2021/12/15 04:44:25;;;;;;;101.70;66.82;;;;;;;8.26;100.00;102601.59;4982619;28;20019;-83
2021/12/15 04:46:59;;;;;;;103.47;67.32;;;;;;;8.28;100.00;102602.47;5005033;28;20015;-83
2021/12/15 04:49:25;;;;;;;99.53;66.28;;;;;;;8.32;100.00;102605.09;5013488;28;20042;-82
2021/12/15 04:51:52;;;;;;;109.75;68.22;;;;;;;8.15;100.00;102597.22;4997239;28;20018;-85
2021/12/15 04:54:18;;;;;;;108.68;68.30;;;;;;;8.22;100.00;102598.13;5014345;28;20019;-83
2021/12/15 04:56:43;;;;;;;110.00;68.60;;;;;;;8.14;100.00;102590.38;5007998;28;20053;-84
2021/12/15 04:59:09;;;;;;;108.87;68.97;;;;;;;8.25;100.00;102602.44;5013828;28;20019;-81
2021/12/15 05:01:35;;;;;;;118.65;69.45;;;;;;;8.08;100.00;102584.31;4966105;28;20257;-83
2021/12/15 05:04:00;;;;;;;102.35;68.47;;;;;;;8.12;100.00;102576.66;4965851;28;20062;-83
2021/12/15 05:06:26;;;;;;;117.30;69.23;;;;;;;8.16;100.00;102588.69;5007652;28;20049;-82
2021/12/15 05:08:51;;;;;;;124.63;70.20;;;;;;;8.23;100.00;102594.72;4972546;28;20019;-88
2021/12/15 05:11:17;;;;;;;117.03;70.73;;;;;;;8.22;100.00;102602.41;4965812;28;20011;-87
2021/12/15 05:13:42;;;;;;;112.97;67.73;;;;;;;8.30;100.00;102605.91;4991468;28;20095;-88
2021/12/15 05:16:07;;;;;;;114.83;66.67;;;;;;;8.35;100.00;102602.56;5014768;28;20086;-87
2021/12/15 05:18:33;;;;;;;110.93;68.43;;;;;;;8.26;100.00;102609.31;4981607;28;20034;-86
2021/12/15 05:20:59;;;;;;;118.60;67.40;;;;;;;8.29;100.00;102596.53;4981820;28;20030;-86
2021/12/15 05:23:31;;;;;;;122.10;70.70;;;;;;;8.17;100.00;102575.00;5014464;28;20031;-86
2021/12/15 05:25:58;;;;;;;124.45;69.32;;;;;;;8.31;100.00;102602.50;4998506;28;20069;-86
2021/12/15 05:28:23;;;;;;;124.05;71.90;;;;;;;8.26;100.00;102594.78;4982172;28;20011;-88
2021/12/15 05:30:49;;;;;;;121.80;67.95;;;;;;;8.42;100.00;102611.19;5014703;28;20073;-87
2021/12/15 05:33:14;;;;;;;120.63;67.30;;;;;;;8.39;100.00;102613.69;4982446;28;20057;-88
2021/12/15 05:35:40;;;;;;;123.00;68.80;;;;;;;8.41;100.00;102619.69;4966490;28;20053;-87
2021/12/15 05:38:06;;;;;;;116.63;68.23;;;;;;;8.41;100.00;102614.56;4982137;28;20026;-88
2021/12/15 05:40:32;;;;;;;;;;;;;;;8.39;100.00;102621.41;4998432;28;20045;-85
2021/12/15 05:42:58;;;;;;;124.10;69.63;;;;;;;8.39;100.00;102616.28;4998110;28;19918;-85
2021/12/15 05:45:26;;;;;;;124.13;70.40;;;;;;;8.44;100.00;102624.03;4965604;28;20019;-86
2021/12/15 05:47:52;;;;;;;125.82;70.97;;;;;;;8.42;100.00;102606.03;5023970;23;20035;-87
2021/12/15 05:50:18;;;;;;;133.10;71.63;;;;;;;8.46;100.00;102618.09;4981775;28;20011;-87
2021/12/15 05:52:43;;;;;;;;;;;;;;;8.44;100.00;102619.78;4980219;28;20011;-86
2021/12/15 05:55:10;;;;;;;122.80;68.15;;;;;;;8.50;100.00;102613.84;4977686;28;19948;-86
2021/12/15 05:57:36;;;;;;;118.40;71.53;;;;;;;8.46;100.00;102620.66;4991247;28;20110;-86
2021/12/15 06:00:10;;;;;;;127.90;71.30;;;;;;;8.44;100.00;102614.63;4993710;28;20049;-86
2021/12/15 06:02:36;;;;;;;121.32;71.88;;;;;;;8.44;100.00;102624.03;4969223;28;20029;-86
2021/12/15 06:05:02;;;;;;;127.73;72.00;;;;;;;8.45;100.00;102620.66;4966714;28;20018;-87
2021/12/15 06:07:28;;;;;;;126.70;71.05;;;;;;;8.44;100.00;102624.03;4965596;28;20033;-86
2021/12/15 06:09:53;;;;;;;131.37;71.90;;;;;;;8.48;100.00;102611.28;4989159;23;20110;-80
2021/12/15 06:12:18;;;;;;;126.83;71.73;;;;;;;8.54;100.00;102618.16;4974543;28;20035;-80
2021/12/15 06:14:44;;;;;;;124.80;71.83;;;;;;;8.57;100.00;102625.03;4990345;28;20034;-81
2021/12/15 06:17:11;;;;;;;130.07;72.47;;;;;;;8.58;100.00;102621.63;4989211;28;20034;-81
2021/12/15 06:19:36;;;;;;;132.23;73.00;;;;;;;8.61;100.00;102629.34;4984317;28;20019;-80
2021/12/15 06:22:04;;;;;;;138.30;75.20;;;;;;;8.70;100.00;102627.75;4994398;28;20060;-81
2021/12/15 06:24:29;;;;;;;118.50;73.90;;;;;;;8.68;100.00;102638.81;4987836;28;20023;-80
2021/12/15 06:26:58;;;;;;;137.70;74.00;;;;;;;8.51;100.00;102619.00;4960189;28;20049;-80
2021/12/15 06:29:23;;;;;;;128.48;73.53;;;;;;;8.61;100.00;102629.34;4985455;28;20027;-81
2021/12/15 06:31:49;;;;;;;126.73;74.00;;;;;;;8.78;100.00;102638.06;4960428;28;20025;-82
2021/12/15 06:34:15;;;;;;;132.37;74.17;;;;;;;8.66;100.00;102637.94;4973873;28;20022;-80
2021/12/15 06:36:40;;;;;;;;;;;;;;;8.71;100.00;102637.13;4978832;28;20023;-80
2021/12/15 06:39:06;;;;;;;120.20;71.05;;;;;;;8.64;100.00;102626.81;4975653;28;19957;-80
2021/12/15 06:41:32;;;;;;;123.43;75.00;;;;;;;8.66;100.00;102630.25;4960793;28;20117;-80
2021/12/15 06:43:58;;;;;;;122.57;73.57;;;;;;;8.80;100.00;102644.06;4976006;28;20360;-81
2021/12/15 06:46:55;;;;;;;142.23;77.10;;;;;;;8.73;100.00;102642.28;4977589;28;20261;-80
2021/12/15 06:58:10;;;;;;;126.78;73.75;;;;;;;8.72;100.00;102650.84;4988890;28;20481;-81
2021/12/15 07:00:20;;;;;;;133.10;74.50;;;;;;;8.74;100.00;102654.28;4976336;28;20411;-81
2021/12/15 07:02:45;;;;;;;140.15;76.57;;;;;;;8.83;100.00;102656.94;4978702;28;20410;-81
2021/12/15 07:05:11;;;;;;;125.73;73.43;;;;;;;8.84;100.00;102661.19;4992045;28;20027;-80
2021/12/15 07:07:38;;;;;;;128.60;75.70;;;;;;;8.92;100.00;102655.28;4976571;28;20119;-81
2021/12/15 07:10:05;;;;;;;126.57;74.00;;;;;;;8.90;100.00;102671.53;4961605;28;20089;-81
2021/12/15 07:12:30;;;;;;;138.50;75.53;;;;;;;8.83;100.00;102669.78;4960483;28;20110;-81
2021/12/15 07:14:56;;;;;;;131.27;74.43;;;;;;;8.87;100.00;102666.38;4973526;28;20098;-81
2021/12/15 07:17:24;;;;;;;130.23;74.27;;;;;;;8.79;100.00;102662.88;4973403;28;20090;-81
2021/12/15 07:20:06;;;;;;;129.93;74.03;;;;;;;8.78;100.00;102655.16;4990134;28;20128;-81
2021/12/15 07:22:44;;;;;;;127.85;75.53;;;;;;;8.89;100.00;102674.97;4991401;28;20022;-82
2021/12/15 07:25:12;;;;;;;118.93;71.20;;;;;;;8.89;100.00;102674.97;4976593;28;20071;-80
2021/12/15 07:27:38;;;;;;;129.13;74.88;;;;;;;8.90;100.00;102663.84;4958817;28;20073;-81
2021/12/15 07:30:04;;;;;;;122.07;73.03;;;;;;;8.93;100.00;102682.69;4974517;28;20031;-81
2021/12/15 07:32:29;;;;;;;116.47;73.00;;;;;;;8.92;100.00;102683.53;4975575;28;20065;-81
2021/12/15 07:34:54;;;;;;;120.87;74.23;;;;;;;8.88;100.00;102673.22;4989982;28;20027;-80
2021/12/15 07:37:20;;;;;;;118.77;72.10;;;;;;;8.88;100.00;102682.66;4959666;28;20026;-80
2021/12/15 07:39:54;;;;;;;119.07;73.40;;;;;;;8.86;100.00;102676.63;4974034;28;20062;-79
2021/12/15 07:42:30;;;;;;;118.15;73.85;;;;;;;8.88;100.00;102686.06;4960553;28;20021;-81
2021/12/15 07:44:55;;;;;;;118.53;75.38;;;;;;;8.90;100.00;102680.94;4991203;28;20026;-80
2021/12/15 07:47:20;;;;;;;124.90;75.07;;;;;;;8.96;100.00;102690.44;4991540;28;20038;-80
2021/12/15 07:49:46;;;;;;;122.33;73.93;;;;;;;8.98;100.00;102693.84;4993917;28;20023;-81
2021/12/15 07:52:11;;;;;;;110.67;71.97;;;;;;;8.85;100.00;102674.91;4975286;28;20622;-80
2021/12/15 07:54:37;;;;;;;103.40;70.87;;;;;;;8.92;100.00;102684.38;4992690;28;20019;-81
2021/12/15 07:57:07;;;;;;;108.70;70.70;;;;;;;8.97;100.00;102704.97;4992008;28;20090;-80
2021/12/15 07:59:33;;;;;;;116.05;70.93;;;;;;;8.90;100.00;102686.09;4972567;28;20023;-81
2021/12/15 08:01:58;;;;;;;115.10;71.72;;;;;;;8.85;100.00;102692.88;4957602;28;20037;-81
2021/12/15 08:04:24;;;;;;;117.73;71.87;;;;;;;8.83;100.00;102687.72;4958850;28;20042;-81
2021/12/15 08:06:49;;;;;;;111.53;70.53;;;;;;;8.90;100.00;102697.19;4971831;28;20077;-81
2021/12/15 08:09:15;;;;;;;105.77;70.73;;;;;;;8.89;100.00;102694.63;4970293;28;20038;-81
2021/12/15 08:11:41;;;;;;;106.30;69.05;;;;;;;8.97;100.00;102703.28;4953580;28;20031;-81
2021/12/15 08:14:07;;;;;;;105.70;70.97;;;;;;;8.90;100.00;102697.19;4987709;28;20037;-81
2021/12/15 08:16:32;;;;;;;101.95;70.22;;;;;;;8.97;100.00;102697.25;4987820;28;20026;-81
2021/12/15 08:18:58;;;;;;;102.27;71.13;;;;;;;8.93;100.00;102696.38;4987679;28;20026;-81
2021/12/15 08:21:23;;;;;;;110.77;71.73;;;;;;;9.03;100.00;102712.72;4987431;28;20130;-81
2021/12/15 08:23:48;;;;;;;96.07;69.03;;;;;;;8.95;100.00;102693.81;4956220;28;20019;-82
2021/12/15 08:26:14;;;;;;;106.50;70.87;;;;;;;8.97;100.00;102702.41;4976045;28;20046;-80
2021/12/15 08:28:43;;;;;;;99.50;69.67;;;;;;;8.90;100.00;102699.75;4993041;28;20086;-81
2021/12/15 08:31:08;;;;;;;107.25;70.63;;;;;;;8.98;100.00;102699.84;4976875;28;20094;-80
2021/12/15 08:33:34;;;;;;;101.03;71.77;;;;;;;9.02;100.00;102700.72;4965728;28;20011;-81
2021/12/15 08:36:04;;;;;;;103.00;70.55;;;;;;;9.02;100.00;102705.84;4961312;28;20046;-81
2021/12/15 08:38:32;;;;;;;98.15;68.90;;;;;;;9.06;100.00;102705.06;4988456;28;20042;-80
2021/12/15 08:40:59;;;;;;;92.88;68.70;;;;;;;8.97;100.00;102702.41;4972552;28;20045;-81
2021/12/15 08:43:24;;;;;;;101.38;69.72;;;;;;;9.06;100.00;102715.31;4969480;28;20457;-81
2021/12/15 08:46:01;;;;;;;92.70;69.28;;;;;;;9.05;99.51;102717.03;4956865;28;20026;-81
2021/12/15 08:48:27;;;;;;;99.38;68.82;;;;;;;9.05;99.37;102726.44;4957791;28;20038;-80
2021/12/15 08:50:52;;;;;;;95.22;68.93;;;;;;;8.99;100.00;102705.84;4971923;28;20026;-81
2021/12/15 08:53:18;;;;;;;97.65;70.22;;;;;;;9.08;99.70;102711.06;4972719;28;20086;-81
2021/12/15 08:55:46;;;;;;;87.47;66.57;;;;;;;9.07;100.00;102711.91;4989859;28;20409;-80
2021/12/15 08:58:13;;;;;;;96.22;70.50;;;;;;;9.06;99.60;102708.47;4970671;28;20070;-81
2021/12/15 09:00:44;;;;;;;107.57;70.72;;;;;;;8.98;99.35;102693.84;4952839;28;20050;-79
2021/12/15 09:03:10;;;;;;;113.03;73.72;;;;;;;8.99;99.50;102700.72;4975923;28;20126;-80
2021/12/15 09:05:36;;;;;;;97.15;68.82;;;;;;;9.11;99.14;102725.63;4971305;28;20050;-80
2021/12/15 09:08:02;;;;;;;111.30;74.00;;;;;;;9.04;99.29;102724.72;4960554;28;20046;-80
2021/12/15 09:10:32;;;;;;;97.28;69.18;;;;;;;9.10;100.00;102713.63;4985155;28;20034;-79
2021/12/15 09:12:58;;;;;;;100.85;69.80;;;;;;;9.16;98.54;102719.72;4979618;28;20026;-81
2021/12/15 09:15:23;;;;;;;89.70;66.53;;;;;;;9.14;99.03;102729.09;4982581;28;20053;-80
2021/12/15 09:17:49;;;;;;;90.47;66.27;;;;;;;9.03;98.66;102710.16;4953314;28;20034;-81
2021/12/15 09:20:18;;;;;;;95.33;66.80;;;;;;;9.13;99.17;102729.94;4979641;28;20042;-81
2021/12/15 09:22:43;;;;;;;97.25;68.85;;;;;;;9.13;98.90;102729.06;4974769;28;20034;-82
2021/12/15 09:25:11;;;;;;;88.77;66.27;;;;;;;9.10;98.64;102716.19;4991221;28;20103;-83
2021/12/15 09:27:37;;;;;;;97.80;69.72;;;;;;;9.07;98.73;102714.47;4973897;28;20046;-82
2021/12/15 09:30:08;;;;;;;97.90;70.47;;;;;;;9.11;98.74;102729.06;4963542;29;20118;-80
2021/12/15 09:32:33;;;;;;;95.50;67.93;;;;;;;9.09;99.51;102717.91;5001554;28;20019;-81
2021/12/15 09:34:59;;;;;;;95.35;67.70;;;;;;;9.13;98.78;102719.69;4999184;28;20045;-81
2021/12/15 09:37:24;;;;;;;97.57;70.03;;;;;;;8.95;98.66;102709.22;5001265;28;20026;-80
2021/12/15 09:39:50;;;;;;;100.43;70.67;;;;;;;9.16;99.20;102732.53;4969873;28;20031;-80
2021/12/15 09:42:19;;;;;;;95.77;69.57;;;;;;;9.02;99.50;102713.56;4967575;28;20094;-82
2021/12/15 09:44:46;;;;;;;95.75;67.75;;;;;;;9.13;99.56;102735.09;4953997;28;20062;-81
2021/12/15 09:47:21;;;;;;;94.90;68.05;;;;;;;9.20;97.94;102741.97;4962237;28;20030;-81
2021/12/15 10:06:24;;;;;;;100.78;70.43;;;;;;;9.29;97.58;102737.78;4978703;28;20069;-81
2021/12/15 10:19:51;;;;;;;103.05;70.32;;;;;;;9.30;98.61;102736.94;4976027;28;20034;-82
2021/12/15 10:22:37;;;;;;;103.20;70.78;;;;;;;9.23;97.56;102736.88;4960880;28;20679;-83
2021/12/15 10:25:14;;;;;;;94.80;68.65;;;;;;;9.25;98.08;102736.88;4967087;28;20055;-83
2021/12/15 10:27:50;;;;;;;93.00;69.07;;;;;;;9.13;98.20;102706.84;4952984;29;20031;-82
2021/12/15 10:30:34;;;;;;;;;;;;;;;9.23;97.94;102736.88;4953117;29;20038;-83
2021/12/15 10:33:27;;;;;;;98.07;70.10;;;;;;;9.09;98.43;102712.78;4974970;29;19899;-82
2021/12/15 10:35:57;;;;;;;97.60;69.30;;;;;;;9.25;97.24;102744.59;4979806;28;20051;-83
2021/12/15 10:38:30;;;;;;;101.35;70.15;;;;;;;9.30;97.72;102737.78;4977075;28;20079;-82
2021/12/15 10:41:02;;;;;;;103.85;71.57;;;;;;;9.31;96.61;102729.25;4979339;28;20046;-82
2021/12/15 10:44:01;;;;;;;103.35;71.32;;;;;;;9.16;96.97;102714.56;4958458;29;20027;-84
2021/12/15 10:46:31;;;;;;;99.82;70.78;;;;;;;9.35;97.00;102735.25;4968902;29;20031;-83
2021/12/15 10:49:11;;;;;;;98.95;69.40;;;;;;;9.39;96.30;102731.88;4936686;29;20023;-82
2021/12/15 10:51:57;;;;;;;101.43;71.80;;;;;;;9.30;97.14;102736.94;4969230;28;20019;-84
2021/12/15 10:54:28;;;;;;;101.65;71.63;;;;;;;9.35;97.16;102732.69;4954171;29;20027;-82
2021/12/15 10:57:06;;;;;;;93.40;68.07;;;;;;;9.36;97.43;102731.84;4951815;29;20087;-82
2021/12/15 10:59:44;;;;;;;102.93;71.05;;;;;;;9.33;97.11;102724.97;4971188;28;20027;-80
2021/12/15 11:02:12;;;;;;;94.03;68.78;;;;;;;9.36;97.06;102739.56;4971339;29;20135;-82
2021/12/15 11:04:47;;;;;;;102.28;69.80;;;;;;;9.44;97.03;102732.78;4957907;29;20094;-81
2021/12/15 11:07:17;;;;;;;100.28;69.93;;;;;;;9.42;97.36;102731.91;4960412;29;20055;-81
2021/12/15 11:10:00;;;;;;;102.10;70.03;;;;;;;9.40;96.54;102733.59;4976866;28;20087;-81
2021/12/15 11:12:48;;;;;;;96.93;70.63;;;;;;;9.33;96.53;102721.56;4960953;29;20015;-81
2021/12/15 11:15:18;;;;;;;103.07;71.28;;;;;;;9.30;96.46;102711.25;4977361;28;20026;-82
2021/12/15 11:18:20;;;;;;;103.38;70.25;;;;;;;9.40;96.23;102723.31;4961534;29;20030;-80
2021/12/15 11:21:01;;;;;;;107.30;72.07;;;;;;;9.34;96.53;102718.16;4974741;28;20035;-82
2021/12/15 11:23:28;;;;;;;109.55;72.65;;;;;;;9.32;96.60;102717.25;4969869;28;20454;-81
2021/12/15 11:26:01;;;;;;;101.05;70.85;;;;;;;9.43;96.25;102724.22;4946116;28;20011;-80
2021/12/15 11:28:30;;;;;;;92.53;70.63;;;;;;;9.50;96.75;102724.28;4979604;28;20035;-80
2021/12/15 11:31:04;;;;;;;99.30;71.50;;;;;;;9.31;96.53;102715.56;4957662;29;20035;-82
2021/12/15 11:33:32;;;;;;;109.68;73.13;;;;;;;9.29;96.98;102724.94;4963260;28;20126;-80
2021/12/15 11:36:00;;;;;;;98.40;71.85;;;;;;;9.36;97.34;102729.28;4983298;28;20021;-81
2021/12/15 11:38:33;;;;;;;106.20;73.45;;;;;;;9.33;96.56;102721.56;4985765;28;20027;-82
2021/12/15 11:40:58;;;;;;;105.50;70.90;;;;;;;9.38;95.99;102723.28;4967556;28;20027;-81
2021/12/15 11:43:31;;;;;;;103.37;70.50;;;;;;;9.39;96.39;102706.19;4968147;28;20043;-80
2021/12/15 11:45:58;;;;;;;112.00;75.75;;;;;;;9.42;96.33;102721.63;4981332;28;20085;-81
2021/12/15 11:48:27;;;;;;;111.28;74.57;;;;;;;9.36;95.97;102711.31;4967237;29;20114;-82
2021/12/15 11:50:56;;;;;;;99.65;70.90;;;;;;;9.33;95.51;102691.59;4952045;29;20099;-81
2021/12/15 11:53:30;;;;;;;110.50;73.53;;;;;;;9.61;95.13;102726.06;4953285;29;20034;-82
2021/12/15 11:56:16;;;;;;;94.53;67.85;;;;;;;9.57;93.95;102723.44;4952624;29;20019;-83
2021/12/15 11:58:43;;;;;;;93.47;68.70;;;;;;;9.49;95.68;102722.53;4966994;29;20034;-82
2021/12/15 12:01:09;;;;;;;101.32;72.20;;;;;;;9.48;94.75;102726.81;4969005;29;20051;-83
2021/12/15 12:03:36;;;;;;;99.25;70.32;;;;;;;9.54;94.64;102721.69;4977202;28;20023;-83
2021/12/15 12:06:25;;;;;;;103.38;71.38;;;;;;;9.41;94.75;102715.63;4955498;28;20103;-88
2021/12/15 12:08:51;;;;;;;98.47;69.78;;;;;;;9.39;94.82;102690.78;4954480;28;20077;-88
2021/12/15 12:11:16;;;;;;;94.77;68.20;;;;;;;9.54;95.05;102724.28;4957418;28;20022;-88
2021/12/15 12:13:49;;;;;;;98.07;69.77;;;;;;;9.44;94.49;102699.38;4956609;29;20023;-87
2021/12/15 12:16:14;;;;;;;104.57;71.82;;;;;;;9.38;93.54;102689.91;4938807;28;20269;-83
2021/12/15 12:18:40;;;;;;;100.63;71.37;;;;;;;9.59;93.44;102725.19;4961223;28;20102;-85